Time;durP1;ratioP1;P1;durP2;ratioP2;P2;SDS_P1;SDS_P2;PMS_P1;PMS_P2;Temp;Humidity;BMP_temperature;BMP_pressure;BME280_temperature;BME280_humidity;BME280_pressure;Samples;Min_cycle;Max_cycle;Signal;HPM_P1;HPM_P2
2023/01/09 00:00:26;;;;;;;4.03;1.92;;;;;;;4.63;100.00;97468.50;5041119;28;20032;-60
2023/01/09 00:02:52;;;;;;;4.95;2.20;;;;;;;4.58;100.00;97468.13;5026020;28;20076;-63
2023/01/09 00:05:18;;;;;;;4.05;1.77;;;;;;;4.57;100.00;97450.22;5043716;28;20028;-64
2023/01/09 00:07:44;;;;;;;5.30;2.10;;;;;;;4.59;100.00;97450.91;5040159;28;20032;-64
2023/01/09 00:10:11;;;;;;;4.63;1.77;;;;;;;4.58;100.00;97465.53;5030478;28;20028;-62
2023/01/09 00:12:37;;;;;;;3.92;1.70;;;;;;;4.68;100.00;97477.59;5047009;28;20020;-60
2023/01/09 00:15:04;;;;;;;4.38;2.10;;;;;;;4.69;100.00;97467.19;5046545;28;20117;-59
2023/01/09 00:17:29;;;;;;;4.95;1.90;;;;;;;4.42;100.00;97406.88;5030598;28;20513;-60
2023/01/09 00:19:55;;;;;;;4.13;1.80;;;;;;;4.70;100.00;97448.19;5044125;28;20029;-60
2023/01/09 00:22:20;;;;;;;4.65;1.75;;;;;;;4.65;100.00;97442.63;5046380;28;20517;-59
2023/01/09 00:24:46;;;;;;;3.88;1.63;;;;;;;4.64;100.00;97443.59;5047589;28;20394;-61
2023/01/09 00:27:13;;;;;;;5.68;1.83;;;;;;;4.68;100.00;97449.28;5031057;28;20028;-61
2023/01/09 00:29:40;;;;;;;4.53;1.75;;;;;;;4.60;100.00;97445.63;5026943;28;20032;-59
2023/01/09 00:32:09;;;;;;;3.72;1.60;;;;;;;4.56;100.00;97435.72;5029167;28;20028;-60
2023/01/09 00:34:37;;;;;;;4.07;1.80;;;;;;;4.68;100.00;97432.06;5045652;28;20029;-62
2023/01/09 00:37:10;;;;;;;3.90;1.80;;;;;;;4.72;100.00;97427.47;5060836;28;20431;-59
2023/01/09 00:39:36;;;;;;;2.90;1.10;;;;;;;4.72;100.00;97428.25;5049151;28;20024;-59
2023/01/09 00:42:02;;;;;;;4.05;1.65;;;;;;;4.64;100.00;97425.56;5029145;28;20040;-61
2023/01/09 00:44:32;;;;;;;3.30;1.35;;;;;;;4.58;100.00;97413.22;5029904;28;20029;-60
2023/01/09 00:47:03;;;;;;;3.92;1.50;;;;;;;4.31;100.00;97360.69;5027697;28;20029;-60
2023/01/09 00:49:30;;;;;;;3.35;1.33;;;;;;;4.54;100.00;97404.94;5046973;28;20124;-59
2023/01/09 00:51:56;;;;;;;3.63;1.50;;;;;;;4.54;100.00;97404.16;5032921;28;20520;-62
2023/01/09 00:54:22;;;;;;;3.97;1.45;;;;;;;4.39;100.00;97375.44;5027516;28;20040;-64
2023/01/09 00:56:48;;;;;;;4.05;1.58;;;;;;;4.64;100.00;97402.41;5047900;28;20027;-61
2023/01/09 00:59:14;;;;;;;3.50;1.70;;;;;;;4.50;100.00;97362.41;5047051;28;20037;-62
2023/01/09 01:01:40;;;;;;;4.13;1.83;;;;;;;4.49;100.00;97350.53;5026979;28;20340;-61
2023/01/09 01:09:34;;;;;;;3.90;1.50;;;;;;;4.67;100.00;97386.66;5044631;28;20039;-61
2023/01/09 01:12:00;;;;;;;3.92;1.40;;;;;;;4.74;100.00;97392.88;5044470;28;20017;-61
2023/01/09 01:14:26;;;;;;;3.33;1.27;;;;;;;4.45;100.00;97343.19;5026633;28;20020;-59
2023/01/09 01:16:52;;;;;;;3.60;1.48;;;;;;;4.36;100.00;97342.25;5028705;28;20044;-59
2023/01/09 01:19:17;;;;;;;3.22;1.42;;;;;;;4.52;100.00;97357.94;5045381;28;20103;-63
2023/01/09 01:21:42;;;;;;;3.58;1.50;;;;;;;4.51;100.00;97364.06;5026133;28;20395;-59
2023/01/09 01:24:08;;;;;;;3.25;1.50;;;;;;;4.58;100.00;97361.72;5046495;28;20123;-59
2023/01/09 01:26:33;;;;;;;2.63;1.02;;;;;;;4.51;100.00;97353.75;5044448;28;20017;-61
2023/01/09 01:28:59;;;;;;;3.53;1.50;;;;;;;4.52;100.00;97349.41;5025931;28;20649;-62
2023/01/09 01:31:24;;;;;;;4.15;1.90;;;;;;;4.48;100.00;97332.63;5023889;28;20020;-61
2023/01/09 01:33:49;;;;;;;3.63;1.55;;;;;;;4.53;100.00;97336.41;5038698;28;20039;-62
2023/01/09 01:36:16;;;;;;;3.70;1.58;;;;;;;4.49;100.00;97336.81;5043940;28;20590;-61
2023/01/09 01:38:42;;;;;;;4.10;1.80;;;;;;;4.45;100.00;97327.75;5029566;28;20059;-63
2023/01/09 01:41:07;;;;;;;4.38;1.75;;;;;;;4.53;100.00;97330.47;5044752;28;20507;-65
2023/01/09 01:43:54;;;;;;;3.35;1.45;;;;;;;4.56;100.00;97322.44;5046953;28;20055;-60
2023/01/09 01:46:20;;;;;;;3.38;1.42;;;;;;;4.58;100.00;97315.38;5023994;28;20035;-62
2023/01/09 01:48:47;;;;;;;3.72;1.67;;;;;;;4.55;100.00;97324.22;5064338;28;20036;-60
2023/01/09 01:51:15;;;;;;;4.10;1.50;;;;;;;4.06;100.00;97253.19;5031827;28;20032;-61
2023/01/09 01:53:51;;;;;;;3.60;1.33;;;;;;;4.54;100.00;97334.66;5046429;28;20056;-61
2023/01/09 01:56:25;;;;;;;4.15;1.40;;;;;;;4.36;100.00;97303.63;5063081;28;20174;-64
2023/01/09 01:58:56;;;;;;;3.08;1.20;;;;;;;4.55;100.00;97334.50;5023827;28;20028;-63
2023/01/09 02:01:22;;;;;;;3.17;1.40;;;;;;;4.60;100.00;97327.19;5039813;28;20094;-62
2023/01/09 02:03:49;;;;;;;3.65;1.50;;;;;;;4.38;100.00;97281.97;5025312;28;20376;-62
2023/01/09 02:06:15;;;;;;;3.55;1.58;;;;;;;4.61;100.00;97309.97;5014921;28;20357;-60
2023/01/09 02:08:41;;;;;;;5.82;1.35;;;;;;;4.69;100.00;97311.84;5046225;28;20040;-66
2023/01/09 02:11:07;;;;;;;3.83;1.50;;;;;;;4.61;100.00;97315.13;5044642;28;20021;-63
2023/01/09 02:13:37;;;;;;;4.03;1.35;;;;;;;4.70;100.00;97319.44;5022572;28;20395;-63
2023/01/09 02:16:19;;;;;;;3.45;1.30;;;;;;;4.70;100.00;97327.16;5041559;28;20097;-61
2023/01/09 02:18:50;;;;;;;3.28;1.15;;;;;;;4.71;100.00;97315.09;5041121;28;20032;-59
2023/01/09 02:21:50;;;;;;;3.38;1.30;;;;;;;4.84;100.00;97325.91;5030992;28;20033;-61
2023/01/09 02:24:28;;;;;;;5.03;1.50;;;;;;;4.86;100.00;97313.72;5062857;28;20420;-63
2023/01/09 02:27:14;;;;;;;3.75;1.48;;;;;;;4.69;100.00;97284.34;5044233;28;20434;-61
2023/01/09 02:30:18;;;;;;;3.70;1.40;;;;;;;4.76;100.00;97293.16;5026025;28;20044;-60
2023/01/09 02:33:31;;;;;;;3.58;1.40;;;;;;;4.93;100.00;97319.94;5042223;28;20546;-62
2023/01/09 02:36:21;;;;;;;3.80;1.30;;;;;;;4.75;100.00;97281.22;4963670;28;20401;-62
2023/01/09 02:39:10;;;;;;;3.13;1.30;;;;;;;4.89;100.00;97315.19;4963005;28;20035;-62
2023/01/09 02:41:49;;;;;;;3.85;1.60;;;;;;;4.65;100.00;97277.84;4956193;28;20040;-60
2023/01/09 02:44:26;;;;;;;4.82;1.85;;;;;;;4.84;100.00;97319.94;4961008;28;20117;-60
2023/01/09 02:47:19;;;;;;;3.60;1.63;;;;;;;4.90;100.00;97314.25;4944256;28;20603;-65
2023/01/09 02:49:53;;;;;;;3.55;1.60;;;;;;;4.72;100.00;97312.38;4920611;28;20430;-61
2023/01/09 02:52:44;;;;;;;3.88;1.50;;;;;;;4.71;100.00;97313.34;4927975;28;20117;-61
2023/01/09 02:55:33;;;;;;;3.40;1.27;;;;;;;4.70;100.00;97303.19;4964659;28;20089;-63
2023/01/09 02:58:00;;;;;;;;;;;;;;;4.73;100.00;97308.88;4965653;28;20059;-61
2023/01/09 03:00:31;;;;;;;3.42;1.30;;;;;;;4.72;100.00;97302.06;4965458;28;20010;-61
2023/01/09 03:03:35;;;;;;;4.20;1.77;;;;;;;4.62;100.00;97283.28;4949066;28;20402;-65
2023/01/09 03:06:09;;;;;;;3.70;1.60;;;;;;;4.56;100.00;97269.22;4950850;28;20124;-68
2023/01/09 03:08:41;;;;;;;3.45;1.42;;;;;;;4.62;100.00;97273.00;5035620;28;20034;-65
2023/01/09 03:11:07;;;;;;;3.72;1.50;;;;;;;4.65;100.00;97277.84;5049008;28;20028;-63
2023/01/09 03:13:46;;;;;;;3.50;1.60;;;;;;;4.62;100.00;97273.00;5049574;28;20824;-62
2023/01/09 03:16:16;;;;;;;4.85;1.80;;;;;;;4.52;100.00;97254.16;5029377;28;20043;-64
2023/01/09 03:18:41;;;;;;;;;;;;;;;4.57;100.00;97259.72;5026630;28;20884;-63
2023/01/09 03:21:07;;;;;;;4.10;1.65;;;;;;;4.60;100.00;97251.72;5027749;28;19959;-63
2023/01/09 03:23:54;;;;;;;4.30;2.00;;;;;;;4.58;100.00;97248.44;5049693;28;20044;-63
2023/01/09 03:26:20;;;;;;;4.82;1.90;;;;;;;4.66;100.00;97252.94;5042077;28;20089;-65
2023/01/09 03:28:47;;;;;;;3.67;1.60;;;;;;;4.64;100.00;97250.50;5032091;28;20393;-63
2023/01/09 03:31:12;;;;;;;4.20;1.90;;;;;;;4.61;100.00;97251.56;5048087;28;20070;-60
2023/01/09 03:33:38;;;;;;;4.28;1.80;;;;;;;4.39;100.00;97216.66;5029573;28;20638;-67
2023/01/09 03:36:04;;;;;;;3.88;1.90;;;;;;;4.63;100.00;97244.50;5042745;28;20035;-63
2023/01/09 03:38:29;;;;;;;4.10;1.80;;;;;;;4.69;100.00;97232.03;5049543;28;20028;-63
2023/01/09 03:40:55;;;;;;;4.60;2.30;;;;;;;4.24;100.00;97161.47;5046776;28;20618;-65
2023/01/09 03:43:20;;;;;;;4.20;2.00;;;;;;;4.70;100.00;97223.38;5036642;28;20056;-61
2023/01/09 03:45:45;;;;;;;4.50;2.22;;;;;;;4.71;100.00;97214.66;5029018;28;20136;-63
2023/01/09 03:48:11;;;;;;;5.88;2.30;;;;;;;4.73;100.00;97217.94;5047375;28;20419;-61
2023/01/09 03:50:36;;;;;;;5.13;2.67;;;;;;;4.76;100.00;97220.22;5033151;28;20476;-64
2023/01/09 03:53:02;;;;;;;4.95;2.25;;;;;;;4.54;100.00;97193.06;5065302;28;20506;-64
2023/01/09 03:55:27;;;;;;;4.15;2.08;;;;;;;4.80;100.00;97239.56;5044439;28;20388;-62
2023/01/09 03:57:53;;;;;;;4.63;2.35;;;;;;;4.79;100.00;97228.47;5040241;28;20086;-63
2023/01/09 04:00:19;;;;;;;4.47;2.08;;;;;;;4.80;100.00;97230.09;5047560;28;20549;-62
2023/01/09 04:02:44;;;;;;;3.83;1.90;;;;;;;4.82;100.00;97227.38;5046804;28;20037;-61
2023/01/09 04:05:10;;;;;;;4.10;1.77;;;;;;;4.79;100.00;97236.19;5027822;28;20035;-60
2023/01/09 04:07:35;;;;;;;4.47;1.90;;;;;;;4.83;100.00;97218.69;5025272;28;20033;-62
2023/01/09 04:10:01;;;;;;;3.80;1.63;;;;;;;4.87;100.00;97221.78;5044880;28;20050;-61
2023/01/09 04:12:27;;;;;;;4.22;1.95;;;;;;;4.51;100.00;97173.56;5044313;28;20060;-63
2023/01/09 04:14:52;;;;;;;3.83;1.77;;;;;;;4.81;100.00;97207.72;5041332;28;20035;-61
2023/01/09 04:17:18;;;;;;;4.10;1.90;;;;;;;4.88;100.00;97226.00;5045793;28;20467;-63
2023/01/09 04:19:43;;;;;;;5.63;2.40;;;;;;;4.91;100.00;97225.69;5029950;28;20017;-62
2023/01/09 04:22:09;;;;;;;4.55;2.47;;;;;;;4.87;100.00;97230.31;5034597;28;20509;-63
2023/01/09 04:24:34;;;;;;;4.10;1.95;;;;;;;4.93;100.00;97245.22;5043580;28;20017;-60
2023/01/09 04:27:00;;;;;;;4.60;2.30;;;;;;;4.57;100.00;97197.94;5045261;28;20047;-61
2023/01/09 04:29:25;;;;;;;4.75;2.17;;;;;;;4.93;100.00;97247.81;5047036;28;20766;-62
2023/01/09 04:31:51;;;;;;;4.60;2.10;;;;;;;5.02;100.00;97256.44;5045000;28;20024;-61
2023/01/09 04:34:17;;;;;;;4.80;2.17;;;;;;;4.97;100.00;97256.06;5047916;28;20463;-62
2023/01/09 04:36:42;;;;;;;4.25;2.00;;;;;;;5.05;100.00;97263.06;5047201;28;20056;-61
2023/01/09 04:39:08;;;;;;;5.13;2.40;;;;;;;4.77;100.00;97230.38;5029357;28;20025;-62
2023/01/09 04:41:49;;;;;;;5.20;2.45;;;;;;;4.96;100.00;97272.44;5047993;28;20387;-60
2023/01/09 04:44:16;;;;;;;4.82;2.50;;;;;;;4.99;100.00;97259.28;5033294;28;20040;-60
2023/01/09 04:46:41;;;;;;;4.30;2.00;;;;;;;4.94;100.00;97257.13;5045685;28;20027;-60
2023/01/09 04:49:07;;;;;;;4.47;2.42;;;;;;;4.80;100.00;97226.69;5046475;28;20405;-59
2023/01/09 04:51:32;;;;;;;4.03;1.83;;;;;;;5.06;100.00;97244.09;5029932;28;20055;-60
2023/01/09 04:53:58;;;;;;;4.22;1.98;;;;;;;5.09;100.00;97236.88;5042780;28;20112;-61
2023/01/09 04:56:23;;;;;;;4.72;2.25;;;;;;;5.11;100.00;97216.09;5043821;28;20110;-60
2023/01/09 04:58:49;;;;;;;4.07;2.15;;;;;;;5.14;100.00;97223.56;5045043;28;20395;-61
2023/01/09 05:01:14;;;;;;;4.55;2.38;;;;;;;5.07;100.00;97215.56;5046298;28;20088;-61
2023/01/09 05:03:39;;;;;;;4.50;2.15;;;;;;;5.11;100.00;97211.78;5048171;28;20116;-60
2023/01/09 05:06:05;;;;;;;4.68;2.42;;;;;;;5.07;100.00;97201.91;5039714;28;20555;-60
2023/01/09 05:08:31;;;;;;;4.50;2.38;;;;;;;5.09;100.00;97193.09;5042060;28;20040;-62
2023/01/09 05:10:56;;;;;;;4.68;2.60;;;;;;;5.08;100.00;97176.00;5063820;28;20039;-65
2023/01/09 05:13:22;;;;;;;4.03;1.98;;;;;;;5.10;100.00;97165.53;5025206;28;20231;-59
2023/01/09 05:15:47;;;;;;;4.90;2.30;;;;;;;5.18;100.00;97173.34;5062103;28;20114;-61
2023/01/09 05:18:12;;;;;;;4.70;2.35;;;;;;;5.21;100.00;97175.63;5046193;28;20036;-60
2023/01/09 05:20:38;;;;;;;4.45;2.25;;;;;;;5.22;100.00;97177.28;5033319;28;20415;-60
2023/01/09 05:23:03;;;;;;;4.70;2.45;;;;;;;5.28;100.00;97188.75;5046505;28;20463;-60
2023/01/09 05:25:29;;;;;;;6.78;2.70;;;;;;;5.28;100.00;97193.91;5045306;28;20033;-61
2023/01/09 05:27:54;;;;;;;4.07;2.05;;;;;;;5.26;100.00;97212.09;5045974;28;20480;-60
2023/01/09 05:30:20;;;;;;;4.28;2.15;;;;;;;5.01;100.00;97190.41;5057743;28;20016;-61
2023/01/09 05:32:45;;;;;;;4.45;2.25;;;;;;;5.15;100.00;97218.25;5047556;28;20029;-63
2023/01/09 05:35:11;;;;;;;4.60;2.20;;;;;;;5.16;100.00;97212.13;5030770;28;20029;-62
2023/01/09 05:37:36;;;;;;;3.45;1.60;;;;;;;5.17;100.00;97220.69;5046811;28;20035;-61
2023/01/09 05:40:02;;;;;;;4.70;2.00;;;;;;;5.17;100.00;97218.91;5027504;28;20044;-63
2023/01/09 05:42:28;;;;;;;4.50;2.40;;;;;;;5.16;100.00;97227.59;5039416;28;20032;-60
2023/01/09 05:44:53;;;;;;;5.13;2.60;;;;;;;5.05;100.00;97230.38;5043692;28;20101;-62
2023/01/09 05:47:19;;;;;;;4.63;2.20;;;;;;;5.09;100.00;97225.75;5045536;28;20032;-61
2023/01/09 05:49:44;;;;;;;4.43;2.10;;;;;;;5.12;100.00;97215.16;5046429;28;20017;-60
2023/01/09 05:52:10;;;;;;;4.00;1.90;;;;;;;5.12;100.00;97221.13;5031302;28;20023;-60
2023/01/09 05:54:35;;;;;;;4.50;2.25;;;;;;;5.16;100.00;97221.63;5043110;28;20021;-59
2023/01/09 05:57:01;;;;;;;3.83;1.65;;;;;;;5.24;100.00;97226.91;5035684;28;20824;-61
2023/01/09 05:59:26;;;;;;;4.68;2.08;;;;;;;4.94;100.00;97195.31;5047390;28;20051;-60
2023/01/09 06:01:53;;;;;;;5.05;2.08;;;;;;;5.23;100.00;97229.63;5028283;28;20021;-65
2023/01/09 06:04:18;;;;;;;4.68;1.95;;;;;;;5.26;100.00;97230.13;5041096;28;20075;-63
2023/01/09 06:06:44;;;;;;;3.95;1.73;;;;;;;5.18;100.00;97223.13;5059409;28;20032;-59
2023/01/09 06:09:09;;;;;;;4.40;2.13;;;;;;;5.26;100.00;97221.59;5026309;28;20028;-60
2023/01/09 06:11:37;;;;;;;3.88;1.75;;;;;;;5.17;100.00;97206.03;5045540;28;20151;-61
2023/01/09 06:14:03;;;;;;;4.30;2.08;;;;;;;5.20;100.00;97210.91;5045868;28;20708;-62
2023/01/09 06:16:29;;;;;;;4.75;2.28;;;;;;;5.17;100.00;97200.88;5034386;28;20035;-60
2023/01/09 06:18:55;;;;;;;4.60;2.33;;;;;;;5.16;100.00;97194.09;5026084;28;20009;-59
2023/01/09 06:21:20;;;;;;;4.53;2.13;;;;;;;5.26;100.00;97196.63;5045878;28;20071;-59
2023/01/09 06:23:45;;;;;;;4.47;2.08;;;;;;;5.16;100.00;97196.66;5024896;28;20056;-60
2023/01/09 06:26:11;;;;;;;4.72;2.58;;;;;;;5.15;100.00;97186.53;5042759;28;20032;-62
2023/01/09 06:28:36;;;;;;;5.10;2.85;;;;;;;5.10;100.00;97197.25;5042731;28;20039;-61
2023/01/09 06:31:02;;;;;;;4.60;2.25;;;;;;;5.06;100.00;97187.41;5021832;28;20729;-60
2023/01/09 06:33:28;;;;;;;4.70;2.40;;;;;;;5.12;100.00;97199.69;5020469;28;20051;-62
2023/01/09 06:35:53;;;;;;;6.05;2.38;;;;;;;5.03;100.00;97187.69;5021658;28;20044;-60
2023/01/09 06:38:19;;;;;;;4.40;2.10;;;;;;;5.12;100.00;97185.03;5027027;28;20114;-60
2023/01/09 06:40:44;;;;;;;4.65;2.22;;;;;;;5.03;100.00;97190.25;5014544;28;20115;-60
2023/01/09 06:43:10;;;;;;;4.65;2.05;;;;;;;5.03;100.00;97203.94;5019281;28;20016;-58
2023/01/09 06:45:36;;;;;;;5.45;2.17;;;;;;;5.11;100.00;97208.38;5043573;28;20021;-60
2023/01/09 06:48:01;;;;;;;4.50;2.40;;;;;;;4.91;100.00;97167.28;5044401;28;20075;-59
2023/01/09 06:50:27;;;;;;;5.05;1.90;;;;;;;5.09;100.00;97200.81;5027896;28;20028;-63
2023/01/09 06:52:52;;;;;;;4.97;2.30;;;;;;;5.04;100.00;97203.00;5028116;28;20024;-59
2023/01/09 06:55:19;;;;;;;4.30;2.00;;;;;;;5.03;100.00;97201.38;5026926;28;20032;-62
2023/01/09 06:57:45;;;;;;;4.90;2.10;;;;;;;4.97;100.00;97205.34;5021392;28;20655;-61
2023/01/09 07:00:11;;;;;;;5.88;2.70;;;;;;;5.05;100.00;97216.69;5015038;28;20025;-60
2023/01/09 07:02:36;;;;;;;8.68;2.83;;;;;;;5.05;100.00;97208.97;5022288;28;20032;-63
2023/01/09 07:05:06;;;;;;;4.60;2.35;;;;;;;5.16;100.00;97208.75;5037559;28;20040;-62
2023/01/09 07:07:31;;;;;;;5.18;2.60;;;;;;;5.15;100.00;97212.31;5045046;28;20115;-60
2023/01/09 07:09:57;;;;;;;6.57;2.22;;;;;;;5.07;100.00;97200.13;5028583;28;20067;-60
2023/01/09 07:12:24;;;;;;;5.18;2.63;;;;;;;5.09;100.00;97218.84;5030938;28;20778;-58
2023/01/09 07:14:49;;;;;;;4.88;2.30;;;;;;;5.07;100.00;97212.19;5018825;28;20028;-60
2023/01/09 07:17:15;;;;;;;4.32;2.17;;;;;;;5.11;100.00;97209.22;5017738;28;20017;-60
2023/01/09 07:19:40;;;;;;;4.50;2.03;;;;;;;5.13;100.00;97209.88;5042016;28;20028;-62
2023/01/09 07:22:06;;;;;;;4.90;2.10;;;;;;;5.11;100.00;97206.63;5053259;28;20782;-62
2023/01/09 07:24:32;;;;;;;4.25;2.13;;;;;;;5.04;100.00;97189.28;5028001;28;20038;-59
2023/01/09 07:26:57;;;;;;;4.35;2.20;;;;;;;5.20;100.00;97203.19;5026883;28;20024;-60
2023/01/09 07:29:23;;;;;;;5.35;2.22;;;;;;;5.17;100.00;97200.88;5028527;28;20033;-62
2023/01/09 07:31:48;;;;;;;4.13;2.03;;;;;;;5.24;100.00;97197.72;5026639;28;20051;-61
2023/01/09 07:34:14;;;;;;;5.00;2.03;;;;;;;5.24;100.00;97189.97;5045078;28;20100;-60
2023/01/09 07:36:39;;;;;;;4.90;2.13;;;;;;;5.29;100.00;97195.53;5013136;28;20029;-60
2023/01/09 07:39:05;;;;;;;6.63;2.50;;;;;;;5.16;100.00;97201.81;5022244;28;20020;-60
2023/01/09 07:41:30;;;;;;;4.70;1.90;;;;;;;5.12;100.00;97195.34;5039921;28;20838;-60
2023/01/09 07:43:56;;;;;;;4.18;1.98;;;;;;;5.08;100.00;97191.44;5044176;28;20494;-62
2023/01/09 07:46:22;;;;;;;4.18;2.10;;;;;;;5.13;100.00;97194.41;5027610;28;20035;-62
2023/01/09 07:48:47;;;;;;;4.30;2.00;;;;;;;5.08;100.00;97194.03;5046315;28;20108;-61
2023/01/09 07:51:13;;;;;;;4.88;2.47;;;;;;;5.24;100.00;97211.44;5022996;28;20699;-60
2023/01/09 07:53:38;;;;;;;5.07;2.58;;;;;;;5.26;100.00;97217.25;5045939;28;20044;-62
2023/01/09 07:56:04;;;;;;;4.63;2.15;;;;;;;5.23;100.00;97214.94;5035960;28;20123;-62
2023/01/09 07:58:30;;;;;;;5.15;3.00;;;;;;;5.18;100.00;97212.00;5030574;28;20047;-61
2023/01/09 08:00:55;;;;;;;6.88;2.60;;;;;;;5.15;100.00;97202.00;5033798;28;20051;-60
2023/01/09 08:03:21;;;;;;;3.50;1.45;;;;;;;5.23;100.00;97207.22;5030600;28;20020;-60
2023/01/09 08:05:46;;;;;;;4.20;2.05;;;;;;;5.30;100.00;97203.09;5027216;28;20029;-63
2023/01/09 08:08:13;;;;;;;4.20;2.13;;;;;;;5.34;100.00;97207.00;5040985;28;20178;-60
2023/01/09 08:10:39;;;;;;;4.65;2.35;;;;;;;5.33;100.00;97220.03;5022424;28;20098;-60
2023/01/09 08:13:05;;;;;;;4.60;2.22;;;;;;;5.41;100.00;97214.97;5045014;28;20033;-60
2023/01/09 08:15:32;;;;;;;5.07;2.63;;;;;;;5.37;100.00;97223.97;5048943;28;20020;-61
2023/01/09 08:17:57;;;;;;;5.75;2.38;;;;;;;5.15;100.00;97197.66;5028455;28;20028;-60
2023/01/09 08:20:23;;;;;;;4.93;2.50;;;;;;;5.32;100.00;97239.84;5027610;28;20857;-63
2023/01/09 08:22:49;;;;;;;4.38;2.28;;;;;;;5.39;100.00;97242.66;5032175;28;20080;-62
2023/01/09 08:25:15;;;;;;;4.85;2.10;;;;;;;5.14;100.00;97210.66;5034982;28;20078;-62
2023/01/09 08:27:41;;;;;;;4.28;1.83;;;;;;;5.36;100.00;97237.81;5032398;28;20765;-61
2023/01/09 08:30:08;;;;;;;5.65;2.30;;;;;;;5.31;100.00;97240.81;5027832;28;20016;-61
2023/01/09 08:32:34;;;;;;;4.55;2.17;;;;;;;5.38;100.00;97243.63;5045707;28;20082;-59
2023/01/09 08:35:00;;;;;;;4.28;1.98;;;;;;;5.40;100.00;97246.84;5030826;28;20032;-60
2023/01/09 08:37:25;;;;;;;6.18;2.20;;;;;;;5.31;100.00;97232.25;5048116;28;20470;-60
2023/01/09 08:39:52;;;;;;;4.03;2.17;;;;;;;5.24;100.00;97241.53;5034215;28;20024;-64
2023/01/09 08:47:46;;;;;;;5.18;2.60;;;;;;;5.38;100.00;97256.50;5046927;28;20042;-61
2023/01/09 08:50:12;;;;;;;4.88;2.50;;;;;;;5.33;100.00;97241.50;5029283;28;20025;-60
2023/01/09 08:55:59;;;;;;;4.50;2.22;;;;;;;5.22;100.00;97256.31;5062395;28;20474;-61
2023/01/09 08:58:25;;;;;;;4.90;2.60;;;;;;;5.10;100.00;97251.38;5044089;28;20032;-60
2023/01/09 09:00:50;;;;;;;6.32;2.70;;;;;;;5.04;100.00;97254.53;5025892;28;20028;-61
2023/01/09 09:03:16;;;;;;;6.57;2.90;;;;;;;4.99;100.00;97239.50;5029348;28;20053;-63
2023/01/09 09:05:42;;;;;;;5.82;3.30;;;;;;;5.03;100.00;97245.16;5046337;28;20582;-61
2023/01/09 09:08:08;;;;;;;5.38;3.00;;;;;;;5.03;100.00;97247.75;5027527;28;20514;-61
2023/01/09 09:10:33;;;;;;;6.32;3.80;;;;;;;5.02;100.00;97253.88;5020331;28;20021;-62
2023/01/09 09:13:00;;;;;;;5.65;3.13;;;;;;;5.10;100.00;97253.94;5028612;28;20028;-61
2023/01/09 09:15:27;;;;;;;5.30;2.78;;;;;;;5.12;100.00;97251.22;5019984;28;20032;-61
2023/01/09 09:17:56;;;;;;;5.72;2.60;;;;;;;4.62;100.00;97180.31;5044403;28;20082;-63
2023/01/09 09:20:23;;;;;;;5.68;2.72;;;;;;;5.17;100.00;97260.16;5028961;28;20021;-62
2023/01/09 09:22:49;;;;;;;5.65;2.42;;;;;;;5.19;100.00;97265.16;5019732;28;20037;-60
2023/01/09 09:25:16;;;;;;;4.68;2.33;;;;;;;5.14;100.00;97254.47;5037608;28;20025;-61
2023/01/09 09:27:42;;;;;;;5.35;2.80;;;;;;;5.17;100.00;97267.88;5047266;28;20496;-63
2023/01/09 09:30:09;;;;;;;6.70;3.40;;;;;;;5.09;100.00;97270.38;5037387;28;20036;-62
2023/01/09 09:32:35;;;;;;;8.13;3.67;;;;;;;5.11;100.00;97272.78;5043957;28;20467;-63
2023/01/09 09:35:00;;;;;;;9.57;5.30;;;;;;;5.07;100.00;97269.69;5027789;28;20039;-63
2023/01/09 09:37:26;;;;;;;10.15;5.05;;;;;;;5.06;100.00;97262.94;5048389;28;20032;-64
2023/01/09 09:39:52;;;;;;;8.18;5.03;;;;;;;5.05;100.00;97260.50;5028818;28;20558;-63
2023/01/09 09:46:06;;;;;;;6.38;2.90;;;;;;;5.14;100.00;97268.16;5043349;28;20051;-60
2023/01/09 09:48:36;;;;;;;5.25;2.60;;;;;;;5.24;100.00;97273.28;4972137;28;20159;-60
2023/01/09 09:51:14;;;;;;;5.32;2.60;;;;;;;5.27;100.00;97260.09;5014903;28;20021;-61
2023/01/09 09:54:10;;;;;;;6.13;3.35;;;;;;;5.37;100.00;97254.91;5020551;28;20307;-63
2023/01/09 09:56:44;;;;;;;5.60;2.95;;;;;;;5.35;100.00;97251.66;5029391;28;20031;-59
2023/01/09 09:59:22;;;;;;;5.38;3.17;;;;;;;5.28;100.00;97237.72;5037697;28;20565;-61
2023/01/09 10:01:51;;;;;;;4.40;2.13;;;;;;;5.27;100.00;97246.41;5034799;28;20021;-59
2023/01/09 10:04:19;;;;;;;5.00;2.33;;;;;;;5.35;100.00;97244.72;5027877;28;20616;-59
2023/01/09 10:06:49;;;;;;;7.05;2.78;;;;;;;4.93;100.00;97164.56;5036465;28;20054;-60
2023/01/09 10:09:20;;;;;;;4.82;2.47;;;;;;;5.46;100.00;97242.88;5028855;28;20033;-60
2023/01/09 10:11:55;;;;;;;4.93;2.13;;;;;;;5.57;100.00;97242.69;5029125;28;20453;-61
2023/01/09 10:14:22;;;;;;;4.57;1.80;;;;;;;5.73;100.00;97227.38;5029515;28;20091;-61
2023/01/09 10:17:10;;;;;;;3.97;1.30;;;;;;;6.04;100.00;97224.44;5028979;28;20020;-62
2023/01/09 10:19:43;;;;;;;3.03;1.10;;;;;;;6.19;100.00;97227.28;5047037;28;20111;-59
2023/01/09 10:22:20;;;;;;;4.85;1.20;;;;;;;6.32;100.00;97226.88;5029636;28;20032;-60
2023/01/09 10:25:14;;;;;;;1.95;0.70;;;;;;;6.39;100.00;97214.16;5046043;28;20029;-59
2023/01/09 10:28:04;;;;;;;3.13;1.02;;;;;;;6.36;100.00;97176.56;5047247;28;20111;-58
2023/01/09 10:30:38;;;;;;;;;;;;;;;6.65;100.00;97206.41;5034635;28;20036;-64
2023/01/09 10:33:38;;;;;;;2.60;0.98;;;;;;;6.77;100.00;97205.16;5043101;28;19916;-61
2023/01/09 10:36:04;;;;;;;3.03;1.10;;;;;;;6.80;100.00;97202.25;5040862;28;20039;-61
2023/01/09 10:38:38;;;;;;;6.55;3.17;;;;;;;6.88;100.00;97197.16;5062232;28;20129;-60
2023/01/09 10:41:28;;;;;;;6.05;2.60;;;;;;;6.93;100.00;97194.88;5043575;28;20120;-62
2023/01/09 10:44:16;;;;;;;4.38;1.70;;;;;;;6.97;100.00;97190.22;5029855;28;20041;-60
2023/01/09 10:46:53;;;;;;;3.33;1.08;;;;;;;7.00;100.00;97176.97;5024240;28;20036;-60
2023/01/09 10:49:21;;;;;;;2.63;0.90;;;;;;;7.15;100.00;97171.19;5039508;28;20112;-62
2023/01/09 10:51:49;;;;;;;2.33;0.80;;;;;;;7.20;100.00;97172.34;5044634;28;20036;-63
2023/01/09 10:54:17;;;;;;;2.03;0.73;;;;;;;7.33;100.00;97161.53;5042237;28;20058;-62
2023/01/09 10:56:53;;;;;;;1.80;0.70;;;;;;;7.34;100.00;97147.66;5044833;28;20567;-61
2023/01/09 10:59:19;;;;;;;2.17;0.80;;;;;;;7.45;100.00;97155.09;5039051;28;20051;-61
2023/01/09 11:01:44;;;;;;;2.33;0.80;;;;;;;7.40;100.00;97141.84;5044920;28;20036;-62
2023/01/09 11:04:25;;;;;;;2.38;0.60;;;;;;;7.50;100.00;97145.09;5040871;28;20043;-61
2023/01/09 11:07:22;;;;;;;2.70;1.05;;;;;;;7.47;100.00;97132.47;5043729;28;20554;-62
2023/01/09 11:10:14;;;;;;;2.92;0.90;;;;;;;7.50;100.00;97132.16;5030121;28;20040;-65
2023/01/09 11:12:40;;;;;;;2.80;1.10;;;;;;;7.60;100.00;97129.41;5037830;28;20037;-63
2023/01/09 11:15:15;;;;;;;2.35;0.80;;;;;;;7.40;100.00;97097.06;5027057;28;20056;-60
2023/01/09 11:17:42;;;;;;;2.30;0.88;;;;;;;7.59;100.00;97132.94;5063294;28;20032;-60
2023/01/09 11:20:17;;;;;;;2.47;0.80;;;;;;;7.63;100.00;97138.59;5029612;28;20028;-61
2023/01/09 11:22:49;;;;;;;2.67;0.80;;;;;;;7.64;100.00;97142.81;5016134;28;20447;-63
2023/01/09 11:25:18;;;;;;;2.42;0.80;;;;;;;7.65;100.00;97140.06;5046524;28;20017;-61
2023/01/09 11:28:00;;;;;;;2.55;0.90;;;;;;;7.67;100.00;97127.78;5028558;28;20033;-61
2023/01/09 11:30:26;;;;;;;2.55;0.90;;;;;;;7.66;100.00;97099.47;5029334;28;20024;-61
2023/01/09 11:32:57;;;;;;;3.30;1.02;;;;;;;7.94;98.88;97131.00;5041286;28;20107;-61
2023/01/09 11:35:31;;;;;;;3.58;1.25;;;;;;;7.93;100.00;97113.03;5025713;28;20025;-61
2023/01/09 11:38:03;;;;;;;2.45;0.98;;;;;;;7.89;100.00;97115.16;5042799;28;20037;-61
2023/01/09 11:40:35;;;;;;;3.45;1.20;;;;;;;7.91;100.00;97110.63;5011683;28;20029;-61
2023/01/09 11:43:14;;;;;;;3.03;0.70;;;;;;;7.95;100.00;97098.16;5009608;28;20080;-63
2023/01/09 11:45:46;;;;;;;3.05;0.98;;;;;;;7.94;100.00;97105.13;5002472;28;20357;-62
2023/01/09 11:48:17;;;;;;;3.00;0.88;;;;;;;7.89;100.00;97102.22;5028445;28;20029;-62
2023/01/09 11:50:53;;;;;;;2.08;0.82;;;;;;;7.99;100.00;97109.78;5023779;28;20117;-61
2023/01/09 11:53:19;;;;;;;3.67;1.40;;;;;;;8.09;100.00;97093.09;5045666;28;20087;-63
2023/01/09 11:55:46;;;;;;;3.00;1.02;;;;;;;7.96;100.00;97058.34;5021835;28;20025;-61
2023/01/09 11:58:17;;;;;;;3.50;1.25;;;;;;;8.27;100.00;97087.72;5020086;28;20033;-62
2023/01/09 12:01:04;;;;;;;3.17;1.17;;;;;;;8.38;100.00;97093.50;5012941;28;20035;-62